createdAt,value
2022-09-15T00:02:01.177Z,15.82
2022-09-15T00:04:30.698Z,18.75
2022-09-15T00:07:03.037Z,54.53
2022-09-15T00:09:32.290Z,21.75
2022-09-15T00:12:01.414Z,24.48
2022-09-15T00:14:30.691Z,16.27
2022-09-15T00:17:00.024Z,20.63
2022-09-15T00:19:29.327Z,25.77
2022-09-15T00:21:58.624Z,17.23
2022-09-15T00:24:27.906Z,26.05
2022-09-15T00:26:57.814Z,29.00
2022-09-15T00:29:27.091Z,28.23
2022-09-15T00:31:56.311Z,28.05
2022-09-15T00:34:25.618Z,23.92
2022-09-15T00:36:54.840Z,37.25
2022-09-15T00:39:24.114Z,19.58
2022-09-15T00:41:53.551Z,32.75
2022-09-15T00:45:00.412Z,26.58
2022-09-15T00:47:40.045Z,24.63
2022-09-15T00:50:18.500Z,29.70
2022-09-15T00:58:14.192Z,27.50
2022-09-15T01:00:58.381Z,21.05
2022-09-15T01:03:31.436Z,26.25
2022-09-15T01:06:17.799Z,27.35
2022-09-15T01:09:22.325Z,24.92
2022-09-15T01:11:52.023Z,32.83
2022-09-15T01:14:21.352Z,26.08
2022-09-15T01:17:42.346Z,20.35
2022-09-15T01:21:01.733Z,37.85
2022-09-15T01:24:15.304Z,35.92
2022-09-15T01:27:40.496Z,15.52
2022-09-15T01:30:21.006Z,19.88
2022-09-15T01:33:34.276Z,18.00
2022-09-15T01:36:29.287Z,14.43
2022-09-15T01:39:25.355Z,15.18
2022-09-15T01:42:17.225Z,23.23
2022-09-15T01:44:57.010Z,15.63
2022-09-15T01:47:31.414Z,29.10
2022-09-15T01:50:13.055Z,14.60
2022-09-15T01:52:50.283Z,36.38
2022-09-15T01:55:40.199Z,14.60
2022-09-15T01:58:10.262Z,14.27
2022-09-15T02:00:49.893Z,14.20
2022-09-15T02:03:38.843Z,10.13
2022-09-15T02:06:37.125Z,14.43
2022-09-15T02:09:23.861Z,10.05
2022-09-15T02:12:23.609Z,19.05
2022-09-15T02:15:30.247Z,16.58
2022-09-15T02:18:06.626Z,16.05
2022-09-15T02:21:08.804Z,15.95
2022-09-15T02:23:56.288Z,14.15
2022-09-15T02:26:30.550Z,10.52
2022-09-15T02:29:07.094Z,13.27
2022-09-15T02:31:44.395Z,10.35
2022-09-15T02:34:26.999Z,33.33
2022-09-15T02:37:00.198Z,17.63
2022-09-15T02:39:39.878Z,48.40
2022-09-15T02:42:09.516Z,12.98
2022-09-15T02:44:40.231Z,16.80
2022-09-15T02:47:12.415Z,12.13
2022-09-15T02:49:47.400Z,16.50
2022-09-15T02:52:17.081Z,13.27
2022-09-15T02:54:50.684Z,16.67
2022-09-15T02:57:21.171Z,11.93
2022-09-15T03:00:03.235Z,22.05
2022-09-15T03:02:34.024Z,12.27
2022-09-15T03:05:03.968Z,14.73
2022-09-15T03:07:33.168Z,20.88
2022-09-15T03:10:02.484Z,14.35
2022-09-15T03:12:31.669Z,8.25
2022-09-15T03:15:00.919Z,14.32
2022-09-15T03:17:30.155Z,8.45
2022-09-15T03:19:59.357Z,13.35
2022-09-15T03:22:28.619Z,10.68
2022-09-15T03:24:57.836Z,11.13
2022-09-15T03:27:27.117Z,27.25
2022-09-15T03:29:56.694Z,30.75
2022-09-15T03:32:28.948Z,10.88
2022-09-15T03:34:58.709Z,21.45
2022-09-15T03:37:28.804Z,12.80
2022-09-15T03:39:58.181Z,13.68
2022-09-15T03:42:27.843Z,37.47
2022-09-15T03:44:57.057Z,22.27
2022-09-15T03:47:26.256Z,10.02
2022-09-15T03:49:56.382Z,26.13
2022-09-15T03:52:25.891Z,17.05
2022-09-15T03:54:55.145Z,48.10
2022-09-15T03:57:24.515Z,35.85
2022-09-15T03:59:53.758Z,13.90
2022-09-15T04:02:22.934Z,38.78
2022-09-15T04:04:52.153Z,14.10
2022-09-15T04:07:21.860Z,21.58
2022-09-15T04:09:51.154Z,15.90
2022-09-15T04:12:20.396Z,21.92
2022-09-15T04:14:49.684Z,12.57
2022-09-15T04:17:18.965Z,12.18
2022-09-15T04:19:48.076Z,14.13
2022-09-15T04:22:18.063Z,25.42
2022-09-15T04:24:49.272Z,12.95
2022-09-15T04:27:19.476Z,8.93
2022-09-15T04:29:53.274Z,12.40
2022-09-15T04:32:23.143Z,9.63
2022-09-15T04:34:52.371Z,16.75
2022-09-15T04:37:21.699Z,13.30
2022-09-15T04:39:51.140Z,7.75
2022-09-15T04:42:22.783Z,7.82
2022-09-15T04:44:52.591Z,10.85
2022-09-15T04:47:21.997Z,18.45
2022-09-15T04:49:54.536Z,8.05
2022-09-15T04:52:23.927Z,10.75
2022-09-15T04:54:53.203Z,11.75
2022-09-15T04:57:22.389Z,10.25
2022-09-15T04:59:51.672Z,8.82
2022-09-15T05:02:21.018Z,11.38
2022-09-15T05:04:52.710Z,6.15
2022-09-15T05:07:23.041Z,11.63
2022-09-15T05:09:52.481Z,14.77
2022-09-15T05:12:21.706Z,24.38
2022-09-15T05:14:50.998Z,10.77
2022-09-15T05:17:22.265Z,19.05
2022-09-15T05:19:53.322Z,20.42
2022-09-15T05:22:22.513Z,21.52
2022-09-15T05:24:51.616Z,7.68
2022-09-15T05:30:37.789Z,6.30
2022-09-15T05:33:08.856Z,9.68
2022-09-15T05:35:38.083Z,13.18
2022-09-15T05:38:07.393Z,5.90
2022-09-15T05:40:36.610Z,5.32
2022-09-15T05:43:05.895Z,8.50
2022-09-15T05:45:35.801Z,6.60
2022-09-15T05:48:06.437Z,9.85
2022-09-15T05:50:35.612Z,8.95
2022-09-15T05:53:06.296Z,11.88
2022-09-15T05:55:39.832Z,10.50
2022-09-15T05:58:09.115Z,12.35
2022-09-15T06:00:39.038Z,14.43
2022-09-15T06:03:08.677Z,11.35
2022-09-15T06:05:38.023Z,11.30
2022-09-15T06:08:07.354Z,15.65
2022-09-15T06:10:36.748Z,18.90
2022-09-15T06:13:06.158Z,10.00
2022-09-15T06:15:35.425Z,13.73
2022-09-15T06:18:04.776Z,13.80
2022-09-15T06:20:33.994Z,7.70
2022-09-15T06:23:03.069Z,10.43
2022-09-15T06:25:32.272Z,13.70
2022-09-15T06:28:01.830Z,9.52
2022-09-15T06:30:31.271Z,10.10
2022-09-15T06:33:00.629Z,11.73
2022-09-15T06:35:29.798Z,10.30
2022-09-15T06:37:58.900Z,11.90
2022-09-15T06:40:28.276Z,8.77
2022-09-15T06:42:58.254Z,6.10
2022-09-15T06:45:27.779Z,8.05
2022-09-15T06:48:20.311Z,11.68
2022-09-15T06:50:46.385Z,12.48
2022-09-15T06:53:15.541Z,25.65
2022-09-15T06:55:44.626Z,20.15
2022-09-15T06:58:13.923Z,19.60
2022-09-15T07:00:44.084Z,15.57
2022-09-15T07:03:13.404Z,15.68
2022-09-15T07:05:43.117Z,16.00
2022-09-15T07:08:12.223Z,14.25
2022-09-15T07:10:46.006Z,16.65
2022-09-15T07:13:15.448Z,12.30
2022-09-15T07:15:57.418Z,9.90
2022-09-15T07:18:27.628Z,8.00
2022-09-15T07:21:09.494Z,13.13
2022-09-15T07:23:38.924Z,15.32
2022-09-15T07:26:22.629Z,13.18
2022-09-15T07:28:56.701Z,9.70
2022-09-15T07:31:29.824Z,11.15
2022-09-15T07:34:00.918Z,14.63
2022-09-15T07:36:31.425Z,11.98
2022-09-15T07:39:00.732Z,8.77
2022-09-15T07:41:32.863Z,11.63
2022-09-15T07:44:03.363Z,19.48
2022-09-15T07:46:34.582Z,14.60
2022-09-15T07:49:04.291Z,12.13
2022-09-15T07:51:33.820Z,7.43
2022-09-15T07:54:03.028Z,13.82
2022-09-15T07:56:32.300Z,16.58
2022-09-15T07:59:01.469Z,12.65
2022-09-15T08:01:30.905Z,17.67
2022-09-15T08:04:00.153Z,16.40
2022-09-15T08:06:30.112Z,16.80
2022-09-15T08:09:00.998Z,10.10
2022-09-15T08:11:31.186Z,18.92
2022-09-15T08:14:04.410Z,11.07
2022-09-15T08:16:33.770Z,17.77
2022-09-15T08:19:03.580Z,15.32
2022-09-15T08:21:32.832Z,18.40
2022-09-15T08:24:02.553Z,16.23
2022-09-15T08:26:32.207Z,16.25
2022-09-15T08:29:01.857Z,12.75
2022-09-15T08:31:31.273Z,12.65
2022-09-15T08:34:04.919Z,12.32
2022-09-15T08:36:35.944Z,12.25
2022-09-15T08:39:05.770Z,8.75
2022-09-15T08:41:50.014Z,9.15
2022-09-15T08:45:03.279Z,12.27
2022-09-15T08:47:46.413Z,9.07
2022-09-15T08:50:33.431Z,19.17
2022-09-15T08:53:30.648Z,12.27
2022-09-15T08:56:10.116Z,13.95
2022-09-15T08:58:40.117Z,12.10
2022-09-15T09:02:00.069Z,19.63
2022-09-15T09:05:13.688Z,12.50
2022-09-15T09:08:38.469Z,13.05
2022-09-15T09:11:47.616Z,20.95
2022-09-15T09:15:01.146Z,18.38
2022-09-15T09:18:06.720Z,19.10
2022-09-15T09:21:05.664Z,16.50
2022-09-15T09:23:50.423Z,8.90
2022-09-15T09:26:20.081Z,17.25
2022-09-15T09:29:02.391Z,14.43
2022-09-15T09:31:31.909Z,16.52
2022-09-15T09:34:41.801Z,16.58
2022-09-15T09:37:17.994Z,13.02
2022-09-15T09:39:48.633Z,15.48
2022-09-15T09:42:20.526Z,19.08
2022-09-15T09:44:49.928Z,17.05
2022-09-15T09:47:21.088Z,18.30
2022-09-15T09:49:51.919Z,16.23
2022-09-15T09:52:38.963Z,18.38
2022-09-15T09:55:28.068Z,17.63
2022-09-15T09:58:19.073Z,16.38
2022-09-15T10:00:49.170Z,12.75
2022-09-15T10:03:36.816Z,18.15
2022-09-15T10:06:26.073Z,13.15
2022-09-15T10:09:05.365Z,18.83
2022-09-15T10:12:00.091Z,18.60
2022-09-15T10:14:43.876Z,11.77
2022-09-15T10:17:28.455Z,16.58
2022-09-15T10:19:59.869Z,18.60
2022-09-15T10:22:41.520Z,20.52
2022-09-15T10:25:55.468Z,12.57
2022-09-15T10:28:27.553Z,16.63
2022-09-15T10:31:14.771Z,10.15
2022-09-15T10:33:48.764Z,9.48
2022-09-15T10:36:33.427Z,12.60
2022-09-15T10:39:35.740Z,14.93
2022-09-15T10:42:26.992Z,11.40
2022-09-15T10:45:35.709Z,20.02
2022-09-15T10:48:41.543Z,15.07
2022-09-15T10:51:36.384Z,13.40
2022-09-15T10:54:35.224Z,10.77
2022-09-15T10:57:37.360Z,10.10
2022-09-15T11:00:26.916Z,13.25
2022-09-15T11:03:42.198Z,15.90
2022-09-15T11:06:43.555Z,12.65
2022-09-15T11:09:39.000Z,15.27
2022-09-15T11:13:01.477Z,19.38
2022-09-15T11:16:21.171Z,16.98
2022-09-15T11:19:26.884Z,16.90
2022-09-15T11:22:23.438Z,13.55
2022-09-15T11:25:03.091Z,12.00
2022-09-15T11:27:56.522Z,17.15
2022-09-15T11:30:47.607Z,17.45
2022-09-15T11:33:57.365Z,13.27
2022-09-15T11:37:06.216Z,26.23
2022-09-15T11:40:18.063Z,17.80
2022-09-15T11:43:19.973Z,14.82
2022-09-15T11:45:57.913Z,16.35
2022-09-15T11:48:46.787Z,14.10
2022-09-15T11:51:24.821Z,12.50
2022-09-15T11:54:13.361Z,14.77
2022-09-15T11:56:50.762Z,18.60
2022-09-15T11:59:56.126Z,16.50
2022-09-15T12:02:57.764Z,24.40
2022-09-15T12:05:38.609Z,13.73
2022-09-15T12:09:07.188Z,13.35
2022-09-15T12:11:54.767Z,12.15
2022-09-15T12:14:46.376Z,17.45
2022-09-15T12:17:30.376Z,12.07
2022-09-15T12:20:34.431Z,13.68
2022-09-15T12:23:33.857Z,22.30
2022-09-15T12:26:23.161Z,16.52
2022-09-15T12:29:04.611Z,15.35
2022-09-15T12:31:41.749Z,15.10
2022-09-15T12:34:37.247Z,17.20
2022-09-15T12:37:31.065Z,18.08
2022-09-15T12:40:00.393Z,18.85
2022-09-15T12:42:32.735Z,18.38
2022-09-15T12:45:21.958Z,20.60
2022-09-15T12:48:07.351Z,17.90
2022-09-15T12:50:45.095Z,17.52
2022-09-15T12:53:27.847Z,18.38
2022-09-15T12:56:11.418Z,24.58
2022-09-15T12:58:51.918Z,17.15
2022-09-15T13:01:56.271Z,15.70
2022-09-15T13:04:55.162Z,23.48
2022-09-15T13:07:38.183Z,18.45
2022-09-15T13:10:31.956Z,18.63
2022-09-15T13:13:28.827Z,17.33
2022-09-15T13:16:04.025Z,15.85
2022-09-15T13:18:35.878Z,19.92
2022-09-15T13:21:13.861Z,19.52
2022-09-15T13:23:49.117Z,21.05
2022-09-15T13:26:25.184Z,16.83
2022-09-15T13:28:56.511Z,22.90
2022-09-15T13:31:54.593Z,22.10
2022-09-15T13:35:13.230Z,24.33
2022-09-15T13:38:26.340Z,22.13
2022-09-15T13:41:43.883Z,25.50
2022-09-15T13:45:04.903Z,21.70
2022-09-15T13:48:28.247Z,21.95
2022-09-15T13:51:07.109Z,19.98
2022-09-15T13:54:04.630Z,19.85
2022-09-15T13:56:44.290Z,17.73
2022-09-15T13:59:24.599Z,20.77
2022-09-15T14:01:55.638Z,18.90
2022-09-15T14:04:30.265Z,17.98
2022-09-15T14:07:03.129Z,16.45
2022-09-15T14:09:51.114Z,21.08
2022-09-15T14:12:20.897Z,22.90
2022-09-15T14:14:56.620Z,20.13
2022-09-15T14:17:36.361Z,18.48
2022-09-15T14:20:22.584Z,18.95
2022-09-15T14:22:52.863Z,17.13
2022-09-15T14:28:37.142Z,18.30
2022-09-15T14:31:11.491Z,27.27
2022-09-15T14:33:52.821Z,22.48
2022-09-15T14:36:38.865Z,25.02
2022-09-15T14:39:28.200Z,18.55
2022-09-15T14:42:02.289Z,19.52
2022-09-15T14:47:32.889Z,22.00
2022-09-15T14:50:23.135Z,15.43
2022-09-15T14:53:19.142Z,24.02
2022-09-15T14:56:17.737Z,25.08
2022-09-15T14:59:07.532Z,15.82
2022-09-15T15:02:03.801Z,20.10
2022-09-15T15:04:46.881Z,20.23
2022-09-15T15:07:39.228Z,18.30
2022-09-15T15:10:36.736Z,17.35
2022-09-15T15:13:23.757Z,18.92
2022-09-15T15:16:31.735Z,17.50
2022-09-15T15:18:48.930Z,19.77
2022-09-15T15:21:49.303Z,14.52
2022-09-15T15:24:33.898Z,14.05
2022-09-15T15:27:43.031Z,14.95
2022-09-15T15:30:45.967Z,16.13
2022-09-15T15:33:30.451Z,28.20
2022-09-15T15:36:13.655Z,18.92
2022-09-15T15:38:58.685Z,21.30
2022-09-15T15:41:36.296Z,18.73
2022-09-15T15:44:31.123Z,22.93
2022-09-15T15:47:34.476Z,20.83
2022-09-15T15:50:25.820Z,22.30
2022-09-15T15:52:58.271Z,19.45
2022-09-15T15:55:45.329Z,21.30
2022-09-15T15:58:21.140Z,24.25
2022-09-15T16:01:00.449Z,21.65
2022-09-15T16:03:29.724Z,23.17
2022-09-15T16:06:05.043Z,24.92
2022-09-15T16:08:41.932Z,20.40
2022-09-15T16:11:20.248Z,20.45
2022-09-15T16:16:27.510Z,19.10
2022-09-15T16:19:02.852Z,21.75
2022-09-15T16:21:43.823Z,19.17
2022-09-15T16:24:17.470Z,19.58
2022-09-15T16:26:58.384Z,21.08
2022-09-15T16:29:37.305Z,18.45
2022-09-15T16:32:13.048Z,21.10
2022-09-15T16:34:47.410Z,18.20
2022-09-15T16:37:19.595Z,20.17
2022-09-15T16:39:53.554Z,21.25
2022-09-15T16:42:27.875Z,20.77
2022-09-15T16:45:02.089Z,17.95
2022-09-15T16:47:34.264Z,21.33
2022-09-15T16:50:09.520Z,21.15
2022-09-15T16:52:43.509Z,23.15
2022-09-15T16:55:39.618Z,14.32
2022-09-15T16:58:12.298Z,13.85
2022-09-15T17:00:42.091Z,8.38
2022-09-15T17:03:17.463Z,12.68
2022-09-15T17:05:51.224Z,7.43
2022-09-15T17:08:36.356Z,13.45
2022-09-15T17:11:20.818Z,10.48
2022-09-15T17:13:53.153Z,11.20
2022-09-15T17:16:25.547Z,4.38
2022-09-15T17:18:59.776Z,6.30
2022-09-15T17:21:32.025Z,5.97
2022-09-15T17:24:09.235Z,9.45
2022-09-15T17:26:41.395Z,4.45
2022-09-15T17:29:16.007Z,6.20
2022-09-15T17:31:49.987Z,5.28
2022-09-15T17:34:19.732Z,4.85
2022-09-15T17:36:51.755Z,6.97
2022-09-15T17:39:26.747Z,3.67
2022-09-15T17:44:34.330Z,4.07
2022-09-15T17:47:09.953Z,5.25
2022-09-15T17:49:41.390Z,5.68
2022-09-15T17:52:12.619Z,5.15
2022-09-15T17:54:47.602Z,4.72
2022-09-15T17:57:22.732Z,6.95
2022-09-15T17:59:56.651Z,5.63
2022-09-15T18:02:28.698Z,5.10
2022-09-15T18:05:02.533Z,6.43
2022-09-15T18:07:36.103Z,3.53
2022-09-15T18:10:08.397Z,5.63
2022-09-15T18:12:44.161Z,2.47
2022-09-15T18:15:27.543Z,5.53
2022-09-15T18:18:03.586Z,6.93
2022-09-15T18:20:38.511Z,7.25
2022-09-15T18:23:12.429Z,3.35
2022-09-15T18:25:44.671Z,5.53
2022-09-15T18:28:18.443Z,6.68
2022-09-15T18:30:57.908Z,5.50
2022-09-15T18:33:31.220Z,4.25
2022-09-15T18:36:00.446Z,5.30
2022-09-15T18:38:32.584Z,5.90
2022-09-15T18:41:02.498Z,4.40
2022-09-15T18:43:34.942Z,6.50
2022-09-15T18:46:04.600Z,8.20
2022-09-15T18:48:36.147Z,3.78
2022-09-15T18:51:13.831Z,4.25
2022-09-15T18:53:54.044Z,5.18
2022-09-15T18:56:26.648Z,6.45
2022-09-15T18:59:00.888Z,4.03
2022-09-15T19:01:36.095Z,4.68
2022-09-15T19:04:10.302Z,6.80
2022-09-15T19:06:43.822Z,6.38
2022-09-15T19:09:15.287Z,4.95
2022-09-15T19:11:45.244Z,6.35
2022-09-15T19:14:14.441Z,5.45
2022-09-15T19:16:57.558Z,5.05
2022-09-15T19:19:30.057Z,5.47
2022-09-15T19:22:01.676Z,3.70
2022-09-15T19:24:34.842Z,16.00
2022-09-15T19:27:06.798Z,3.50
2022-09-15T19:29:40.976Z,6.43
2022-09-15T19:32:15.591Z,5.78
2022-09-15T19:34:45.508Z,6.05
2022-09-15T19:37:18.877Z,5.50
2022-09-15T19:39:52.668Z,6.47
2022-09-15T19:42:26.786Z,6.88
2022-09-15T19:45:01.411Z,5.65
2022-09-15T19:47:33.565Z,7.45
2022-09-15T19:50:13.061Z,11.38
2022-09-15T19:52:48.244Z,6.40
2022-09-15T19:55:23.422Z,10.05
2022-09-15T19:57:57.785Z,11.07
2022-09-15T20:00:29.635Z,8.88
2022-09-15T20:03:01.808Z,7.95
2022-09-15T20:05:33.469Z,6.50
2022-09-15T20:08:09.682Z,6.57
2022-09-15T20:10:42.701Z,8.82
2022-09-15T20:13:15.065Z,4.82
2022-09-15T20:16:04.297Z,6.03
2022-09-15T20:18:42.443Z,6.25
2022-09-15T20:21:26.903Z,3.85
2022-09-15T20:24:05.992Z,4.35
2022-09-15T20:26:35.808Z,2.42
2022-09-15T20:29:09.289Z,6.60
2022-09-15T20:31:43.789Z,2.50
2022-09-15T20:34:13.188Z,2.25
2022-09-15T20:36:45.479Z,5.53
2022-09-15T20:39:19.286Z,4.00
2022-09-15T20:41:51.596Z,6.15
2022-09-15T20:44:29.321Z,4.43
2022-09-15T20:47:01.429Z,4.45
2022-09-15T20:49:35.379Z,4.60
2022-09-15T20:52:05.666Z,6.13
2022-09-15T20:54:35.563Z,6.07
2022-09-15T20:57:07.308Z,3.35
2022-09-15T20:59:39.441Z,3.63
2022-09-15T21:02:12.015Z,3.60
2022-09-15T21:04:46.129Z,6.00
2022-09-15T21:07:18.143Z,4.13
2022-09-15T21:09:50.584Z,3.97
2022-09-15T21:12:22.587Z,4.85
2022-09-15T21:14:57.622Z,4.38
2022-09-15T21:17:32.810Z,6.13
2022-09-15T21:20:07.040Z,5.85
2022-09-15T21:22:38.721Z,7.85
2022-09-15T21:25:08.439Z,5.60
2022-09-15T21:27:40.760Z,5.57
2022-09-15T21:30:13.493Z,11.70
2022-09-15T21:32:48.263Z,10.00
2022-09-15T21:35:22.112Z,6.93
2022-09-15T21:37:51.267Z,6.10
2022-09-15T21:40:23.615Z,10.00
2022-09-15T21:42:58.762Z,14.27
2022-09-15T21:45:28.253Z,9.20
2022-09-15T21:48:02.351Z,10.68
2022-09-15T21:50:34.314Z,12.85
2022-09-15T21:53:08.576Z,8.32
2022-09-15T21:55:43.100Z,6.30
2022-09-15T21:58:15.056Z,8.30
2022-09-15T22:00:47.385Z,7.15
2022-09-15T22:03:19.454Z,11.48
2022-09-15T22:05:52.881Z,7.25
2022-09-15T22:08:25.144Z,7.93
2022-09-15T22:11:01.556Z,6.90
2022-09-15T22:13:38.683Z,9.32
2022-09-15T22:16:15.357Z,8.32
2022-09-15T22:18:45.683Z,6.47
2022-09-15T22:21:30.321Z,8.63
2022-09-15T22:24:01.087Z,9.10
2022-09-15T22:26:36.825Z,10.32
2022-09-15T22:29:09.677Z,7.93
2022-09-15T22:31:39.351Z,11.20
2022-09-15T22:34:10.997Z,8.23
2022-09-15T22:36:45.476Z,10.73
2022-09-15T22:39:17.261Z,11.65
2022-09-15T22:41:52.137Z,13.30
2022-09-15T22:44:22.920Z,9.43
2022-09-15T22:46:57.386Z,9.05
2022-09-15T22:49:29.471Z,14.20
2022-09-15T22:52:00.324Z,7.57
2022-09-15T22:54:32.403Z,8.63
2022-09-15T22:57:07.434Z,9.73
2022-09-15T22:59:42.361Z,9.60
2022-09-15T23:02:14.235Z,11.68
2022-09-15T23:04:49.367Z,12.02
2022-09-15T23:07:18.539Z,13.40
2022-09-15T23:09:53.332Z,8.57
2022-09-15T23:12:28.338Z,10.57
2022-09-15T23:15:07.408Z,12.00
2022-09-15T23:17:39.770Z,11.52
2022-09-15T23:20:09.346Z,9.77
2022-09-15T23:22:44.730Z,12.38
2022-09-15T23:25:17.104Z,10.73
2022-09-15T23:27:47.132Z,10.07
2022-09-15T23:30:19.639Z,17.58
2022-09-15T23:32:53.642Z,19.98
2022-09-15T23:35:25.631Z,15.85
2022-09-15T23:37:54.894Z,12.27
2022-09-15T23:40:30.852Z,10.85
2022-09-15T23:43:06.212Z,14.43
2022-09-15T23:45:35.756Z,21.95
2022-09-15T23:48:09.265Z,13.77
2022-09-15T23:50:46.675Z,15.07
2022-09-15T23:53:19.580Z,11.32
2022-09-15T23:55:52.047Z,10.00
2022-09-15T23:58:27.033Z,14.88
